createdAt,value
2022-08-20T00:00:02.496Z,20.90
2022-08-20T00:00:12.587Z,20.90
2022-08-20T00:00:22.673Z,20.90
2022-08-20T00:00:32.773Z,20.80
2022-08-20T00:00:42.938Z,20.40
2022-08-20T00:00:52.940Z,20.70
2022-08-20T00:01:03.905Z,20.80
2022-08-20T00:01:13.965Z,21.30
2022-08-20T00:01:24.111Z,21.10
2022-08-20T00:01:34.261Z,21.50
2022-08-20T00:01:44.377Z,21.20
2022-08-20T00:01:54.569Z,21.40
2022-08-20T00:02:04.578Z,21.50
2022-08-20T00:02:14.751Z,21.20
2022-08-20T00:02:24.844Z,21.70
2022-08-20T00:02:34.931Z,21.60
2022-08-20T00:02:45.064Z,22.00
2022-08-20T00:02:55.153Z,20.90
2022-08-20T00:03:05.235Z,20.30
2022-08-20T00:03:15.323Z,20.20
2022-08-20T00:03:25.615Z,20.80
2022-08-20T00:03:35.473Z,20.70
2022-08-20T00:03:51.715Z,20.50
2022-08-20T00:03:56.563Z,20.60
2022-08-20T00:04:07.523Z,21.40
2022-08-20T00:04:17.613Z,21.60
2022-08-20T00:04:27.684Z,21.30
2022-08-20T00:04:39.568Z,20.80
2022-08-20T00:04:47.971Z,20.50
2022-08-20T00:04:58.044Z,20.60
2022-08-20T00:05:08.122Z,21.00
2022-08-20T00:05:18.205Z,21.30
2022-08-20T00:05:28.294Z,20.90
2022-08-20T00:05:38.363Z,21.30
2022-08-20T00:05:48.444Z,21.50
2022-08-20T00:05:58.514Z,20.90
2022-08-20T00:06:08.592Z,20.30
2022-08-20T00:06:18.663Z,19.80
2022-08-20T00:06:28.740Z,19.80
2022-08-20T00:06:38.812Z,19.70
2022-08-20T00:06:49.034Z,19.70
2022-08-20T00:06:58.924Z,20.60
2022-08-20T00:07:09.003Z,20.60
2022-08-20T00:07:19.093Z,21.10
2022-08-20T00:07:29.224Z,20.70
2022-08-20T00:07:39.294Z,20.80
2022-08-20T00:07:49.443Z,20.50
2022-08-20T00:07:59.370Z,20.70
2022-08-20T00:08:09.454Z,20.50
2022-08-20T00:08:19.563Z,20.30
2022-08-20T00:08:29.654Z,20.50
2022-08-20T00:08:39.723Z,21.00
2022-08-20T00:08:49.800Z,21.40
2022-08-20T00:08:59.872Z,21.40
2022-08-20T00:09:09.932Z,21.30
2022-08-20T00:09:20.069Z,21.30
2022-08-20T00:09:30.125Z,21.40
2022-08-20T00:09:40.903Z,20.80
2022-08-20T00:09:51.002Z,21.40
2022-08-20T00:10:01.113Z,20.60
2022-08-20T00:10:11.186Z,21.30
2022-08-20T00:10:21.243Z,20.70
2022-08-20T00:10:31.332Z,21.00
2022-08-20T00:10:41.395Z,20.70
2022-08-20T00:10:54.989Z,20.90
2022-08-20T00:11:01.593Z,21.00
2022-08-20T00:11:11.662Z,20.50
2022-08-20T00:11:21.733Z,20.20
2022-08-20T00:11:31.783Z,20.00
2022-08-20T00:11:41.871Z,20.10
2022-08-20T00:11:51.945Z,20.30
2022-08-20T00:12:02.011Z,20.60
2022-08-20T00:12:12.103Z,20.70
2022-08-20T00:12:22.181Z,20.70
2022-08-20T00:12:32.269Z,20.10
2022-08-20T00:12:42.354Z,20.50
2022-08-20T00:12:52.432Z,20.40
2022-08-20T00:13:02.523Z,20.60
2022-08-20T00:13:14.000Z,20.90
2022-08-20T00:13:23.566Z,21.90
2022-08-20T00:13:33.642Z,21.80
2022-08-20T00:13:43.736Z,21.60
2022-08-20T00:13:53.825Z,21.30
2022-08-20T00:14:03.914Z,20.90
2022-08-20T00:14:13.983Z,20.90
2022-08-20T00:14:24.075Z,21.00
2022-08-20T00:14:34.258Z,21.60
2022-08-20T00:14:44.344Z,21.80
2022-08-20T00:14:54.411Z,21.90
2022-08-20T00:15:04.486Z,22.10
2022-08-20T00:15:14.562Z,22.40
2022-08-20T00:15:24.644Z,22.60
2022-08-20T00:15:34.746Z,22.30
2022-08-20T00:15:44.874Z,21.90
2022-08-20T00:15:55.034Z,22.00
2022-08-20T00:16:05.103Z,22.20
2022-08-20T00:16:15.175Z,22.30
2022-08-20T00:16:25.263Z,21.80
2022-08-20T00:16:35.333Z,21.20
2022-08-20T00:16:45.454Z,20.90
2022-08-20T00:16:55.586Z,21.30
2022-08-20T00:17:05.802Z,21.60
2022-08-20T00:17:15.883Z,21.70
2022-08-20T00:17:25.943Z,20.60
2022-08-20T00:17:36.024Z,20.90
2022-08-20T00:17:46.103Z,21.10
2022-08-20T00:17:56.391Z,21.50
2022-08-20T00:18:06.195Z,21.40
2022-08-20T00:18:16.283Z,20.80
2022-08-20T00:18:26.353Z,21.40
2022-08-20T00:18:36.433Z,21.20
2022-08-20T00:18:46.503Z,21.30
2022-08-20T00:18:56.585Z,21.30
2022-08-20T00:19:06.662Z,21.30
2022-08-20T00:19:16.742Z,21.70
2022-08-20T00:19:27.125Z,21.90
2022-08-20T00:19:36.874Z,21.80
2022-08-20T00:19:46.970Z,21.40
2022-08-20T00:19:57.066Z,21.10
2022-08-20T00:20:07.145Z,20.90
2022-08-20T00:20:17.224Z,21.40
2022-08-20T00:20:27.312Z,21.90
2022-08-20T00:20:37.393Z,22.20
2022-08-20T00:20:47.393Z,21.80
2022-08-20T00:20:57.483Z,21.50
2022-08-20T00:21:07.544Z,21.70
2022-08-20T00:21:18.894Z,22.20
2022-08-20T00:21:27.663Z,22.60
2022-08-20T00:21:37.831Z,22.60
2022-08-20T00:21:47.927Z,23.10
2022-08-20T00:21:58.535Z,22.60
2022-08-20T00:22:08.164Z,22.60
2022-08-20T00:22:18.252Z,22.90
2022-08-20T00:22:28.328Z,23.10
2022-08-20T00:22:38.402Z,23.40
2022-08-20T00:22:48.473Z,23.50
2022-08-20T00:22:58.565Z,23.80
2022-08-20T00:23:10.592Z,23.30
2022-08-20T00:23:18.917Z,22.80
2022-08-20T00:23:29.004Z,23.00
2022-08-20T00:23:39.063Z,23.90
2022-08-20T00:23:49.175Z,24.30
2022-08-20T00:23:59.257Z,23.80
2022-08-20T00:24:09.365Z,23.50
2022-08-20T00:24:19.444Z,23.20
2022-08-20T00:24:29.563Z,23.70
2022-08-20T00:24:39.634Z,23.30
2022-08-20T00:24:49.723Z,22.90
2022-08-20T00:24:59.862Z,22.80
2022-08-20T00:25:09.985Z,22.90
2022-08-20T00:25:20.074Z,22.90
2022-08-20T00:25:30.168Z,23.50
2022-08-20T00:25:40.250Z,23.60
2022-08-20T00:25:50.361Z,24.10
2022-08-20T00:26:00.434Z,23.90
2022-08-20T00:26:10.522Z,23.90
2022-08-20T00:26:20.614Z,23.20
2022-08-20T00:26:30.726Z,22.80
2022-08-20T00:26:52.180Z,22.10
2022-08-20T00:26:52.608Z,22.60
2022-08-20T00:27:01.956Z,22.50
2022-08-20T00:27:12.054Z,22.50
2022-08-20T00:27:22.145Z,22.60
2022-08-20T00:27:32.243Z,23.10
2022-08-20T00:27:42.331Z,23.20
2022-08-20T00:27:52.411Z,22.70
2022-08-20T00:28:02.505Z,23.10
2022-08-20T00:28:12.584Z,23.10
2022-08-20T00:28:22.690Z,23.20
2022-08-20T00:28:32.772Z,23.30
2022-08-20T00:28:42.933Z,23.00
2022-08-20T00:28:52.854Z,24.00
2022-08-20T00:29:02.926Z,24.40
2022-08-20T00:29:13.016Z,23.90
2022-08-20T00:29:23.233Z,23.30
2022-08-20T00:29:33.324Z,22.70
2022-08-20T00:29:43.411Z,24.00
2022-08-20T00:29:53.503Z,24.20
2022-08-20T00:30:03.590Z,24.10
2022-08-20T00:30:13.675Z,24.00
2022-08-20T00:30:23.763Z,24.40
2022-08-20T00:30:33.913Z,24.70
2022-08-20T00:30:44.003Z,24.60
2022-08-20T00:30:54.094Z,24.70
2022-08-20T00:31:04.184Z,24.60
2022-08-20T00:31:14.270Z,25.20
2022-08-20T00:31:24.343Z,25.30
2022-08-20T00:31:34.434Z,25.60
2022-08-20T00:31:44.576Z,24.20
2022-08-20T00:31:54.663Z,24.00
2022-08-20T00:32:04.743Z,23.30
2022-08-20T00:32:14.834Z,22.90
2022-08-20T00:32:24.923Z,22.50
2022-08-20T00:32:35.003Z,23.00
2022-08-20T00:32:45.090Z,23.70
2022-08-20T00:32:55.175Z,24.00
2022-08-20T00:33:05.262Z,24.30
2022-08-20T00:33:15.345Z,23.90
2022-08-20T00:33:25.433Z,23.80
2022-08-20T00:33:35.515Z,24.30
2022-08-20T00:33:45.597Z,25.10
2022-08-20T00:33:55.670Z,25.20
2022-08-20T00:34:05.772Z,25.20
2022-08-20T00:34:15.843Z,25.30
2022-08-20T00:34:26.036Z,25.90
2022-08-20T00:34:36.126Z,25.40
2022-08-20T00:34:46.205Z,24.60
2022-08-20T00:34:56.273Z,24.40
2022-08-20T00:35:06.353Z,24.40
2022-08-20T00:35:16.453Z,25.10
2022-08-20T00:35:26.531Z,25.30
2022-08-20T00:35:36.621Z,26.50
2022-08-20T00:35:46.702Z,26.50
2022-08-20T00:35:56.778Z,26.50
2022-08-20T00:36:06.866Z,26.40
2022-08-20T00:36:16.961Z,26.80
2022-08-20T00:36:32.884Z,26.70
2022-08-20T00:36:38.004Z,26.60
2022-08-20T00:36:48.012Z,26.90
2022-08-20T00:36:58.156Z,26.50
2022-08-20T00:37:08.274Z,26.00
2022-08-20T00:37:18.384Z,25.80
2022-08-20T00:37:28.561Z,26.20
2022-08-20T00:37:38.717Z,26.00
2022-08-20T00:37:48.785Z,25.60
2022-08-20T00:38:00.813Z,25.70
2022-08-20T00:38:08.844Z,25.80
2022-08-20T00:38:18.954Z,26.00
2022-08-20T00:38:29.083Z,25.80
2022-08-20T00:38:39.193Z,25.50
2022-08-20T00:38:49.302Z,25.50
2022-08-20T00:38:59.412Z,26.00
2022-08-20T00:39:09.546Z,26.40
2022-08-20T00:39:19.654Z,26.50
2022-08-20T00:39:29.775Z,25.80
2022-08-20T00:39:39.956Z,25.80
2022-08-20T00:39:50.125Z,25.90
2022-08-20T00:40:00.478Z,26.10
2022-08-20T00:40:22.177Z,26.40
2022-08-20T00:40:22.230Z,26.90
2022-08-20T00:40:31.335Z,26.90
2022-08-20T00:40:41.484Z,27.30
2022-08-20T00:40:51.592Z,27.70
2022-08-20T00:41:01.701Z,28.30
2022-08-20T00:41:11.802Z,27.60
2022-08-20T00:41:21.914Z,27.30
2022-08-20T00:41:32.044Z,26.40
2022-08-20T00:41:42.164Z,26.50
2022-08-20T00:41:52.293Z,26.10
2022-08-20T00:42:02.444Z,26.00
2022-08-20T00:42:12.564Z,26.60
2022-08-20T00:42:22.715Z,26.40
2022-08-20T00:42:32.747Z,26.90
2022-08-20T00:42:42.903Z,26.50
2022-08-20T00:42:53.144Z,26.20
2022-08-20T00:43:03.224Z,26.30
2022-08-20T00:43:13.324Z,26.10
2022-08-20T00:43:23.413Z,27.00
2022-08-20T00:43:33.504Z,26.60
2022-08-20T00:43:43.586Z,26.90
2022-08-20T00:43:53.670Z,26.30
2022-08-20T00:44:03.924Z,26.30
2022-08-20T00:44:14.029Z,26.20
2022-08-20T00:44:24.123Z,26.40
2022-08-20T00:44:34.212Z,26.20
2022-08-20T00:44:44.302Z,27.30
2022-08-20T00:44:54.382Z,27.10
2022-08-20T00:45:04.463Z,27.00
2022-08-20T00:45:14.555Z,26.30
2022-08-20T00:45:24.633Z,26.50
2022-08-20T00:45:34.715Z,27.00
2022-08-20T00:45:44.795Z,26.70
2022-08-20T00:45:54.884Z,27.00
2022-08-20T00:46:04.972Z,27.50
2022-08-20T00:46:15.061Z,27.70
2022-08-20T00:46:31.033Z,27.90
2022-08-20T00:46:36.103Z,27.60
2022-08-20T00:46:46.203Z,27.10
2022-08-20T00:46:56.301Z,26.70
2022-08-20T00:47:06.442Z,27.40
2022-08-20T00:47:16.535Z,27.40
2022-08-20T00:47:26.653Z,27.60
2022-08-20T00:47:36.775Z,27.60
2022-08-20T00:47:51.347Z,27.90
2022-08-20T00:47:57.167Z,27.20
2022-08-20T00:48:07.004Z,27.10
2022-08-20T00:48:17.163Z,27.20
2022-08-20T00:48:27.255Z,27.20
2022-08-20T00:48:37.336Z,27.20
2022-08-20T00:48:47.414Z,27.30
2022-08-20T00:48:57.523Z,28.20
2022-08-20T00:49:07.624Z,27.70
2022-08-20T00:49:17.725Z,27.90
2022-08-20T00:49:27.813Z,28.00
2022-08-20T00:49:37.905Z,28.70
2022-08-20T00:49:47.974Z,27.70
2022-08-20T00:49:58.063Z,27.10
2022-08-20T00:50:08.144Z,26.90
2022-08-20T00:50:18.224Z,27.60
2022-08-20T00:50:28.316Z,27.90
2022-08-20T00:50:38.394Z,28.50
2022-08-20T00:50:48.486Z,28.90
2022-08-20T00:51:41.216Z,0.00
2022-08-20T00:51:51.293Z,28.10
2022-08-20T00:52:01.366Z,28.70
2022-08-20T00:52:11.450Z,29.40
2022-08-20T00:52:21.544Z,29.80
2022-08-20T00:52:31.619Z,28.90
2022-08-20T00:52:41.707Z,28.00
2022-08-20T00:52:52.675Z,27.90
2022-08-20T00:53:02.796Z,28.10
2022-08-20T00:53:12.848Z,27.50
2022-08-20T00:53:22.944Z,27.80
2022-08-20T00:53:33.046Z,28.80
2022-08-20T00:53:43.136Z,28.70
2022-08-20T00:53:53.227Z,28.70
2022-08-20T00:54:03.313Z,28.40
2022-08-20T00:54:13.406Z,28.70
2022-08-20T00:54:23.488Z,29.00
2022-08-20T00:54:33.577Z,28.80
2022-08-20T00:54:43.677Z,29.20
2022-08-20T00:54:53.816Z,28.80
2022-08-20T00:55:03.903Z,29.80
2022-08-20T00:55:13.986Z,29.80
2022-08-20T00:55:27.392Z,30.50
2022-08-20T00:55:35.025Z,29.60
2022-08-20T00:55:45.107Z,29.80
2022-08-20T00:55:55.228Z,29.10
2022-08-20T00:56:05.316Z,29.50
2022-08-20T00:56:15.426Z,29.80
2022-08-20T00:56:25.535Z,30.60
2022-08-20T00:56:35.626Z,30.70
2022-08-20T00:56:45.717Z,30.10
2022-08-20T00:56:55.803Z,29.60
2022-08-20T00:57:05.866Z,29.30
2022-08-20T00:57:15.956Z,29.50
2022-08-20T00:57:26.061Z,29.30
2022-08-20T00:57:54.788Z,30.30
2022-08-20T00:58:01.280Z,30.50
2022-08-20T00:58:01.426Z,30.40
2022-08-20T00:58:08.478Z,30.10
2022-08-20T00:58:18.236Z,30.30
2022-08-20T00:58:28.323Z,28.90
2022-08-20T00:58:38.406Z,28.70
2022-08-20T00:58:48.496Z,29.00
2022-08-20T00:58:58.581Z,30.30
2022-08-20T00:59:08.656Z,30.50
2022-08-20T00:59:18.750Z,30.80
2022-08-20T00:59:28.827Z,31.00
2022-08-20T00:59:38.926Z,31.00
2022-08-20T00:59:49.006Z,31.10
2022-08-20T00:59:59.088Z,30.10
2022-08-20T01:00:09.176Z,29.20
2022-08-20T01:00:19.260Z,30.00
2022-08-20T01:00:29.376Z,30.40
2022-08-20T01:00:39.456Z,30.40
2022-08-20T01:00:49.656Z,29.60
2022-08-20T01:00:59.758Z,29.30
2022-08-20T01:01:09.870Z,30.10
2022-08-20T01:01:20.036Z,30.10
2022-08-20T01:01:30.199Z,31.20
2022-08-20T01:01:55.247Z,30.30
2022-08-20T01:01:55.406Z,29.80
2022-08-20T01:02:02.296Z,29.10
2022-08-20T01:02:12.244Z,30.00
2022-08-20T01:02:22.254Z,30.20
2022-08-20T01:02:32.337Z,30.00
2022-08-20T01:02:42.417Z,29.30
2022-08-20T01:02:52.494Z,29.30
2022-08-20T01:03:02.624Z,28.40
2022-08-20T01:03:12.696Z,28.30
2022-08-20T01:03:22.786Z,28.10
2022-08-20T01:03:32.856Z,29.60
2022-08-20T01:03:42.950Z,30.00
2022-08-20T01:03:53.037Z,30.70
2022-08-20T01:04:03.128Z,30.00
2022-08-20T01:04:13.226Z,29.50
2022-08-20T01:04:23.326Z,29.60
2022-08-20T01:04:33.425Z,29.30
2022-08-20T01:04:43.557Z,30.00
2022-08-20T01:04:53.675Z,30.10
2022-08-20T01:05:03.756Z,29.70
2022-08-20T01:05:13.858Z,29.30
2022-08-20T01:05:29.480Z,28.80
2022-08-20T01:05:34.896Z,29.40
2022-08-20T01:05:44.978Z,29.60
2022-08-20T01:05:55.076Z,29.20
2022-08-20T01:06:05.167Z,30.00
2022-08-20T01:06:15.254Z,29.10
2022-08-20T01:06:25.367Z,28.30
2022-08-20T01:06:35.455Z,27.10
2022-08-20T01:06:45.566Z,27.60
2022-08-20T01:06:55.653Z,28.00
2022-08-20T01:07:05.739Z,28.50
2022-08-20T01:07:15.826Z,28.40
2022-08-20T01:07:25.894Z,28.70
2022-08-20T01:07:35.986Z,28.70
2022-08-20T01:07:46.087Z,28.70
2022-08-20T01:07:56.363Z,28.50
2022-08-20T01:08:06.185Z,27.80
2022-08-20T01:08:16.284Z,27.60
2022-08-20T01:08:26.358Z,27.70
2022-08-20T01:08:36.485Z,27.60
2022-08-20T01:08:46.577Z,28.00
2022-08-20T01:08:56.674Z,28.10
2022-08-20T01:09:06.758Z,28.10
2022-08-20T01:09:16.855Z,28.30
2022-08-20T01:09:49.657Z,27.60
2022-08-20T01:09:57.432Z,28.30
2022-08-20T01:09:57.806Z,28.40
2022-08-20T01:09:59.833Z,27.90
2022-08-20T01:10:09.907Z,26.70
2022-08-20T01:10:19.996Z,26.90
2022-08-20T01:10:30.099Z,27.00
2022-08-20T01:10:40.186Z,27.30
2022-08-20T01:10:50.208Z,27.00
2022-08-20T01:11:00.315Z,28.10
2022-08-20T01:11:10.416Z,28.10
2022-08-20T01:11:20.520Z,28.30
2022-08-20T01:11:30.577Z,26.90
2022-08-20T01:11:41.545Z,26.70
2022-08-20T01:11:51.616Z,26.70
2022-08-20T01:12:01.686Z,27.10
2022-08-20T01:12:11.745Z,27.80
2022-08-20T01:12:21.857Z,28.50
2022-08-20T01:12:31.949Z,28.10
2022-08-20T01:12:42.018Z,27.80
2022-08-20T01:12:53.232Z,27.90
2022-08-20T01:13:03.107Z,28.00
2022-08-20T01:13:13.189Z,27.70
2022-08-20T01:13:23.245Z,27.00
2022-08-20T01:13:33.297Z,26.70
2022-08-20T01:13:43.366Z,26.90
2022-08-20T01:13:53.434Z,27.20
2022-08-20T01:14:03.486Z,26.70
2022-08-20T01:14:13.540Z,26.50
2022-08-20T01:14:23.681Z,26.00
2022-08-20T01:14:33.714Z,25.60
2022-08-20T01:14:43.752Z,25.80
2022-08-20T01:14:53.816Z,26.10
2022-08-20T01:15:03.879Z,26.40
2022-08-20T01:15:13.926Z,26.70
2022-08-20T01:15:26.950Z,26.50
2022-08-20T01:15:34.947Z,26.60
2022-08-20T01:15:45.006Z,26.50
2022-08-20T01:15:55.077Z,26.90
2022-08-20T01:16:05.148Z,26.50
2022-08-20T01:16:15.228Z,25.70
2022-08-20T01:16:25.286Z,25.20
2022-08-20T01:16:35.445Z,25.30
2022-08-20T01:16:46.423Z,26.00
2022-08-20T01:16:56.538Z,26.20
2022-08-20T01:17:06.617Z,26.10
2022-08-20T01:17:16.706Z,25.90
2022-08-20T01:17:26.786Z,25.70
2022-08-20T01:17:36.877Z,25.60
2022-08-20T01:17:46.954Z,26.20
2022-08-20T01:17:57.158Z,26.20
2022-08-20T01:18:07.139Z,26.10
2022-08-20T01:18:17.216Z,25.50
2022-08-20T01:18:27.306Z,25.00
2022-08-20T01:18:37.386Z,24.20
2022-08-20T01:18:47.481Z,23.90
2022-08-20T01:18:57.600Z,24.20
2022-08-20T01:19:29.349Z,25.60
2022-08-20T01:19:29.506Z,26.40
2022-08-20T01:19:30.341Z,26.00
2022-08-20T01:19:39.757Z,25.20
2022-08-20T01:19:49.854Z,24.70
2022-08-20T01:19:59.927Z,24.20
2022-08-20T01:20:10.027Z,24.60
2022-08-20T01:20:20.118Z,24.70
2022-08-20T01:20:30.207Z,24.90
2022-08-20T01:20:40.314Z,24.70
2022-08-20T01:20:50.396Z,24.90
2022-08-20T01:21:00.486Z,24.80
2022-08-20T01:21:10.567Z,24.20
2022-08-20T01:21:20.677Z,23.70
2022-08-20T01:21:30.757Z,23.10
2022-08-20T01:21:40.837Z,23.00
2022-08-20T01:21:51.942Z,23.40
2022-08-20T01:22:01.026Z,23.70
2022-08-20T01:22:11.107Z,23.90
2022-08-20T01:22:21.197Z,24.10
2022-08-20T01:22:31.266Z,25.20
2022-08-20T01:22:41.357Z,24.40
2022-08-20T01:22:51.436Z,24.10
2022-08-20T01:23:01.528Z,22.80
2022-08-20T01:23:11.598Z,23.90
2022-08-20T01:23:21.689Z,23.90
2022-08-20T01:23:31.776Z,24.20
2022-08-20T01:23:41.864Z,23.70
2022-08-20T01:23:51.958Z,22.90
2022-08-20T01:24:02.056Z,22.60
2022-08-20T01:24:12.148Z,22.70
2022-08-20T01:24:22.229Z,23.20
2022-08-20T01:24:32.318Z,23.30
2022-08-20T01:24:42.408Z,22.70
2022-08-20T01:24:52.497Z,21.90
2022-08-20T01:25:02.595Z,22.20
2022-08-20T01:25:12.696Z,22.50
2022-08-20T01:25:23.925Z,22.70
2022-08-20T01:25:32.877Z,23.40
2022-08-20T01:25:42.973Z,23.80
2022-08-20T01:25:53.097Z,23.90
2022-08-20T01:26:03.217Z,22.80
2022-08-20T01:26:13.296Z,22.80
2022-08-20T01:26:23.377Z,22.90
2022-08-20T01:26:33.456Z,23.20
2022-08-20T01:26:43.607Z,22.80
2022-08-20T01:26:53.697Z,22.20
2022-08-20T01:27:03.807Z,21.40
2022-08-20T01:27:13.797Z,21.40
2022-08-20T01:27:23.884Z,22.20
2022-08-20T01:27:34.015Z,22.60
2022-08-20T01:27:44.984Z,22.20
2022-08-20T01:27:55.549Z,21.70
2022-08-20T01:28:05.296Z,21.50
2022-08-20T01:28:15.407Z,21.70
2022-08-20T01:28:25.493Z,21.70
2022-08-20T01:28:35.570Z,21.50
2022-08-20T01:28:45.666Z,22.10
2022-08-20T01:28:55.757Z,21.60
2022-08-20T01:29:05.846Z,22.10
2022-08-20T01:29:15.946Z,22.40
2022-08-20T01:29:26.036Z,23.10
2022-08-20T01:29:36.136Z,23.60
2022-08-20T01:29:46.217Z,23.30
2022-08-20T01:29:56.309Z,22.60
2022-08-20T01:30:06.983Z,22.80
2022-08-20T01:30:16.577Z,22.60
2022-08-20T01:30:26.676Z,23.40
2022-08-20T01:30:36.805Z,23.10
2022-08-20T01:30:46.879Z,22.10
2022-08-20T01:30:56.986Z,21.50
2022-08-20T01:31:07.117Z,21.50
2022-08-20T01:31:17.347Z,22.40
2022-08-20T01:31:27.286Z,22.30
2022-08-20T01:31:37.385Z,22.80
2022-08-20T01:31:47.476Z,22.40
2022-08-20T01:31:57.576Z,22.90
2022-08-20T01:32:07.656Z,23.00
2022-08-20T01:32:17.744Z,22.80
2022-08-20T01:32:27.830Z,22.90
2022-08-20T01:32:37.913Z,23.00
2022-08-20T01:32:47.986Z,23.30
2022-08-20T01:32:58.074Z,23.60
2022-08-20T01:33:08.158Z,23.00
2022-08-20T01:33:18.258Z,23.30
2022-08-20T01:33:28.346Z,23.60
2022-08-20T01:33:38.434Z,23.90
2022-08-20T01:33:48.533Z,23.10
2022-08-20T01:33:58.617Z,22.50
2022-08-20T01:34:08.718Z,21.90
2022-08-20T01:34:18.788Z,22.40
2022-08-20T01:34:28.875Z,22.70
2022-08-20T01:34:38.926Z,23.20
2022-08-20T01:34:48.977Z,23.20
2022-08-20T01:34:59.016Z,23.90
2022-08-20T01:35:09.057Z,24.20
2022-08-20T01:35:19.106Z,24.60
2022-08-20T01:35:29.146Z,24.00
2022-08-20T01:35:39.207Z,23.40
2022-08-20T01:35:49.253Z,22.90
2022-08-20T01:35:59.298Z,22.60
2022-08-20T01:36:09.434Z,22.70
2022-08-20T01:36:19.476Z,23.00
2022-08-20T01:36:29.526Z,23.10
2022-08-20T01:36:43.089Z,22.80
2022-08-20T01:36:50.588Z,22.70
2022-08-20T01:37:00.636Z,23.40
2022-08-20T01:37:10.686Z,23.20
2022-08-20T01:37:20.746Z,23.40
2022-08-20T01:37:31.906Z,22.50
2022-08-20T01:37:40.947Z,22.80
2022-08-20T01:37:50.986Z,22.70
2022-08-20T01:38:01.049Z,23.20
2022-08-20T01:38:11.106Z,23.80
2022-08-20T01:38:21.176Z,23.50
2022-08-20T01:38:31.218Z,23.80
2022-08-20T01:38:41.266Z,23.00
2022-08-20T01:38:54.325Z,23.40
2022-08-20T01:39:02.316Z,22.90
2022-08-20T01:39:12.374Z,23.30
2022-08-20T01:39:22.436Z,22.80
2022-08-20T01:39:32.538Z,22.30
2022-08-20T01:39:42.663Z,22.40
2022-08-20T01:39:52.780Z,22.70
2022-08-20T01:40:02.881Z,23.20
2022-08-20T01:40:12.916Z,22.90
2022-08-20T01:40:22.963Z,22.60
2022-08-20T01:40:33.016Z,22.10
2022-08-20T01:40:43.057Z,21.60
2022-08-20T01:40:53.106Z,21.50
2022-08-20T01:41:03.207Z,21.60
2022-08-20T01:41:13.256Z,21.40
2022-08-20T01:41:28.519Z,21.90
2022-08-20T01:41:34.283Z,21.50
2022-08-20T01:41:44.347Z,21.90
2022-08-20T01:41:54.349Z,22.20
2022-08-20T01:42:04.440Z,22.20
2022-08-20T01:42:14.503Z,22.10
2022-08-20T01:42:24.535Z,22.10
2022-08-20T01:42:34.548Z,22.50
2022-08-20T01:42:53.995Z,22.20
2022-08-20T01:42:59.357Z,21.00
2022-08-20T01:43:05.647Z,20.70
2022-08-20T01:43:15.647Z,21.40
2022-08-20T01:43:25.657Z,21.90
2022-08-20T01:43:37.055Z,21.50
2022-08-20T01:43:45.795Z,20.80
2022-08-20T01:43:55.807Z,20.60
2022-08-20T01:44:05.816Z,20.60
2022-08-20T01:44:18.396Z,21.70
2022-08-20T01:44:26.816Z,21.80
2022-08-20T01:44:36.856Z,21.80
2022-08-20T01:44:46.918Z,21.00
2022-08-20T01:44:57.019Z,21.20
2022-08-20T01:45:07.067Z,20.90
2022-08-20T01:45:17.118Z,20.90
2022-08-20T01:45:27.802Z,20.50
2022-08-20T01:45:37.276Z,21.10
2022-08-20T01:45:47.428Z,21.50
2022-08-20T01:45:57.507Z,21.50
2022-08-20T01:46:07.595Z,21.00
2022-08-20T01:46:17.647Z,20.50
2022-08-20T01:46:27.716Z,21.10
2022-08-20T01:46:43.748Z,21.10
2022-08-20T01:46:48.727Z,21.50
2022-08-20T01:46:58.777Z,21.20
2022-08-20T01:47:08.826Z,21.00
2022-08-20T01:47:18.957Z,21.10
2022-08-20T01:47:29.107Z,20.90
2022-08-20T01:47:39.225Z,21.80
2022-08-20T01:47:49.735Z,22.00
2022-08-20T01:47:59.307Z,21.50
2022-08-20T01:48:09.557Z,21.00
2022-08-20T01:48:19.560Z,20.60
2022-08-20T01:48:29.585Z,20.60
2022-08-20T01:48:39.636Z,21.40
2022-08-20T01:48:49.686Z,21.70
2022-08-20T01:48:59.823Z,21.90
2022-08-20T01:49:13.654Z,21.00
2022-08-20T01:49:23.115Z,21.00
2022-08-20T01:49:30.859Z,21.30
2022-08-20T01:49:40.907Z,21.90
2022-08-20T01:49:50.986Z,21.50
2022-08-20T01:50:01.056Z,21.00
2022-08-20T01:50:11.127Z,20.40
2022-08-20T01:50:21.186Z,20.30
2022-08-20T01:50:31.257Z,20.30
2022-08-20T01:50:41.313Z,20.70
2022-08-20T01:50:51.368Z,21.10
2022-08-20T01:51:01.437Z,21.40
2022-08-20T01:51:11.501Z,20.20
2022-08-20T01:51:21.506Z,20.70
2022-08-20T01:51:31.565Z,20.20
2022-08-20T01:51:41.607Z,21.00
2022-08-20T01:51:51.690Z,20.50
2022-08-20T01:52:01.746Z,20.10
2022-08-20T01:52:11.797Z,20.50
2022-08-20T01:52:21.838Z,20.50
2022-08-20T01:52:31.947Z,21.00
2022-08-20T01:52:41.997Z,20.40
2022-08-20T01:52:52.098Z,20.90
2022-08-20T01:53:02.177Z,21.00
2022-08-20T01:53:12.225Z,21.30
2022-08-20T01:53:22.265Z,21.30
2022-08-20T01:53:32.318Z,20.60
2022-08-20T01:53:42.357Z,20.50
2022-08-20T01:53:52.416Z,20.60
2022-08-20T01:54:02.466Z,21.20
2022-08-20T01:54:12.518Z,20.90
2022-08-20T01:54:22.575Z,20.10
2022-08-20T01:54:32.624Z,20.40
2022-08-20T01:54:42.696Z,21.40
2022-08-20T01:54:52.764Z,22.10
2022-08-20T01:55:02.839Z,22.50
2022-08-20T01:55:12.905Z,22.10
2022-08-20T01:55:22.957Z,21.70
2022-08-20T01:55:32.997Z,20.80
2022-08-20T01:55:43.047Z,20.40
2022-08-20T01:55:53.117Z,20.60
2022-08-20T01:56:03.173Z,20.80
2022-08-20T01:56:13.247Z,21.00
2022-08-20T01:56:23.287Z,21.30
2022-08-20T01:56:33.337Z,21.70
2022-08-20T01:56:43.378Z,21.80
2022-08-20T01:56:53.438Z,22.10
2022-08-20T01:57:03.497Z,21.40
2022-08-20T01:57:13.598Z,21.20
2022-08-20T01:57:23.660Z,20.60
2022-08-20T01:57:33.725Z,20.80
2022-08-20T01:57:43.768Z,20.90
2022-08-20T01:57:53.825Z,20.40
2022-08-20T01:58:03.877Z,19.00
2022-08-20T01:58:13.957Z,17.00
2022-08-20T01:58:24.005Z,16.20
2022-08-20T01:58:34.054Z,16.20
2022-08-20T01:58:44.117Z,16.10
2022-08-20T01:58:56.274Z,16.20
2022-08-20T01:59:04.298Z,15.70
2022-08-20T01:59:14.358Z,15.90
2022-08-20T01:59:24.457Z,14.90
2022-08-20T01:59:34.524Z,14.80
2022-08-20T01:59:44.605Z,14.70
2022-08-20T01:59:54.646Z,14.80
2022-08-20T02:00:04.716Z,15.30
2022-08-20T02:00:19.683Z,15.50
2022-08-20T02:00:25.767Z,16.10
2022-08-20T02:00:35.876Z,15.20
2022-08-20T02:00:45.976Z,15.00
2022-08-20T02:00:56.037Z,14.40
2022-08-20T02:01:06.172Z,14.60
2022-08-20T02:01:16.112Z,14.70
2022-08-20T02:01:26.208Z,14.90
2022-08-20T02:01:46.345Z,15.10
2022-08-20T02:01:47.353Z,14.70
2022-08-20T02:01:57.298Z,14.40
2022-08-20T02:02:07.393Z,14.10
2022-08-20T02:02:17.448Z,14.50
2022-08-20T02:02:27.553Z,13.60
2022-08-20T02:02:37.636Z,13.70
2022-08-20T02:02:47.696Z,13.30
2022-08-20T02:02:57.755Z,14.00
2022-08-20T02:03:07.815Z,14.10
2022-08-20T02:03:17.876Z,13.60
2022-08-20T02:03:27.928Z,12.80
2022-08-20T02:03:41.800Z,12.30
2022-08-20T02:03:48.947Z,12.80
2022-08-20T02:03:58.987Z,13.50
2022-08-20T02:04:09.045Z,14.80
2022-08-20T02:04:20.009Z,15.20
2022-08-20T02:04:30.077Z,15.30
2022-08-20T02:04:40.136Z,15.30
2022-08-20T02:04:50.186Z,15.30
2022-08-20T02:05:00.267Z,15.10
2022-08-20T02:05:10.317Z,14.90
2022-08-20T02:05:20.370Z,15.20
2022-08-20T02:05:30.773Z,15.10
2022-08-20T02:05:40.518Z,15.30
2022-08-20T02:05:50.577Z,15.70
2022-08-20T02:06:00.627Z,16.20
2022-08-20T02:06:10.678Z,16.70
2022-08-20T02:06:20.756Z,16.00
2022-08-20T02:06:30.810Z,15.80
2022-08-20T02:06:40.907Z,14.70
2022-08-20T02:06:56.306Z,14.80
2022-08-20T02:07:02.037Z,15.10
2022-08-20T02:07:12.115Z,15.90
2022-08-20T02:07:22.148Z,16.10
2022-08-20T02:07:32.226Z,15.60
2022-08-20T02:07:42.284Z,14.80
2022-08-20T02:07:52.399Z,14.50
2022-08-20T02:08:02.454Z,14.80
2022-08-20T02:08:12.516Z,14.90
2022-08-20T02:08:22.586Z,14.60
2022-08-20T02:08:32.646Z,14.50
2022-08-20T02:08:42.698Z,14.30
2022-08-20T02:08:52.776Z,14.80
2022-08-20T02:09:02.870Z,14.80
2022-08-20T02:09:16.023Z,14.90
2022-08-20T02:09:23.225Z,15.00
2022-08-20T02:09:33.285Z,14.90
2022-08-20T02:09:43.347Z,15.30
2022-08-20T02:09:53.407Z,15.30
2022-08-20T02:10:03.465Z,15.30
2022-08-20T02:10:13.507Z,15.10
2022-08-20T02:10:23.577Z,15.30
2022-08-20T02:10:33.628Z,15.60
2022-08-20T02:10:43.718Z,15.60
2022-08-20T02:10:53.769Z,15.90
2022-08-20T02:11:03.850Z,15.50